Time;durP1;ratioP1;P1;durP2;ratioP2;P2;SDS_P1;SDS_P2;PMS_P1;PMS_P2;Temp;Humidity;BMP_temperature;BMP_pressure;BME280_temperature;BME280_humidity;BME280_pressure;Samples;Min_cycle;Max_cycle;Signal;HPM_P1;HPM_P2
2024/03/14 00:01:57;;;;;;;17.23;10.00;;;;;;;9.47;100.00;98578.63;4965887;28;20046;-66
2024/03/14 00:04:23;;;;;;;15.02;9.90;;;;;;;9.54;100.00;98576.31;4964551;28;20535;-66
2024/03/14 00:06:48;;;;;;;16.85;10.00;;;;;;;9.59;100.00;98580.13;4962547;28;20065;-64
2024/03/14 00:09:14;;;;;;;16.70;10.75;;;;;;;9.52;100.00;98586.03;4966461;28;20384;-64
2024/03/14 00:11:39;;;;;;;17.23;10.88;;;;;;;9.62;100.00;98577.28;4962360;28;20045;-64
2024/03/14 00:14:08;;;;;;;17.65;10.55;;;;;;;9.65;100.00;98589.13;4948349;28;20048;-65
2024/03/14 00:16:33;;;;;;;15.63;10.50;;;;;;;9.32;100.00;98578.25;4977388;28;20534;-65
2024/03/14 00:18:59;;;;;;;15.88;10.68;;;;;;;9.03;100.00;98535.00;4961850;28;20149;-66
2024/03/14 00:21:28;;;;;;;17.13;10.98;;;;;;;9.38;100.00;98577.72;4951130;28;20395;-63
2024/03/14 00:23:54;;;;;;;15.80;10.40;;;;;;;9.40;100.00;98578.41;4962486;28;20050;-65
2024/03/14 00:26:19;;;;;;;15.88;9.60;;;;;;;9.46;100.00;98577.03;4947081;28;20039;-65
2024/03/14 00:28:47;;;;;;;16.50;10.30;;;;;;;9.40;100.00;98574.97;4946693;28;20034;-64
2024/03/14 00:31:12;;;;;;;17.58;10.85;;;;;;;9.42;100.00;98573.88;4984267;28;20049;-64
2024/03/14 00:33:38;;;;;;;16.73;10.80;;;;;;;9.44;100.00;98565.97;4958022;28;20038;-66
2024/03/14 00:36:04;;;;;;;16.50;10.45;;;;;;;9.39;100.00;98568.97;4970938;28;20065;-64
2024/03/14 00:38:30;;;;;;;16.77;10.63;;;;;;;9.17;100.00;98533.75;4978906;28;20037;-64
2024/03/14 00:40:56;;;;;;;19.38;10.70;;;;;;;9.17;100.00;98546.72;4971299;28;20121;-64
2024/03/14 00:43:21;;;;;;;15.50;9.93;;;;;;;9.37;100.00;98564.88;4984170;28;20062;-65
2024/03/14 00:45:49;;;;;;;17.00;10.65;;;;;;;9.36;100.00;98574.44;4996461;28;20690;-64
2024/03/14 00:48:14;;;;;;;16.98;11.57;;;;;;;9.43;100.00;98580.69;4985353;28;20033;-65
2024/03/14 00:50:42;;;;;;;18.23;10.68;;;;;;;9.17;100.00;98536.34;4956175;28;20034;-63
2024/03/14 00:53:08;;;;;;;17.85;10.95;;;;;;;9.47;100.00;98581.22;4968717;28;20034;-63
2024/03/14 00:55:33;;;;;;;17.73;11.05;;;;;;;9.04;100.00;98531.44;4958664;28;20108;-65
2024/03/14 00:58:00;;;;;;;16.30;10.93;;;;;;;9.30;100.00;98581.94;4966705;28;20149;-66
2024/03/14 01:00:29;;;;;;;17.05;10.95;;;;;;;9.37;100.00;98575.25;4980966;28;20604;-65
2024/03/14 01:02:56;;;;;;;20.90;11.60;;;;;;;9.38;100.00;98582.91;4973040;28;20657;-65
2024/03/14 01:05:24;;;;;;;20.25;11.57;;;;;;;8.88;100.00;98525.97;4979992;28;20109;-65
2024/03/14 01:07:50;;;;;;;17.60;11.02;;;;;;;9.02;100.00;98571.44;4979957;28;20421;-65
2024/03/14 01:10:18;;;;;;;20.80;10.15;;;;;;;9.08;100.00;98577.84;5001333;28;20059;-66
2024/03/14 01:12:46;;;;;;;16.80;10.13;;;;;;;8.92;100.00;98537.69;4956682;28;20030;-64
2024/03/14 01:15:17;;;;;;;15.93;10.07;;;;;;;9.12;100.00;98574.03;4987034;28;20155;-66
2024/03/14 01:17:43;;;;;;;15.15;9.30;;;;;;;9.18;100.00;98570.88;4980104;28;20064;-65
2024/03/14 01:20:15;;;;;;;17.00;10.02;;;;;;;9.18;100.00;98581.25;4959673;28;20435;-65
2024/03/14 01:22:41;;;;;;;16.35;10.32;;;;;;;9.23;100.00;98563.50;4981166;28;20026;-66
2024/03/14 01:25:12;;;;;;;16.40;10.65;;;;;;;9.27;100.00;98575.25;4971817;28;20045;-66
2024/03/14 01:27:39;;;;;;;16.80;10.52;;;;;;;9.29;100.00;98575.09;5002278;28;20036;-67
2024/03/14 01:30:12;;;;;;;16.48;10.38;;;;;;;9.27;100.00;98572.66;4961477;28;20038;-66
2024/03/14 01:32:38;;;;;;;14.95;9.90;;;;;;;9.17;100.00;98582.22;4969311;28;20257;-65
2024/03/14 01:35:06;;;;;;;16.20;9.38;;;;;;;8.81;100.00;98527.47;4982360;28;20151;-66
2024/03/14 01:37:32;;;;;;;16.35;9.63;;;;;;;9.03;100.00;98571.31;4977588;28;20045;-65
2024/03/14 01:39:58;;;;;;;15.68;9.82;;;;;;;9.06;100.00;98564.22;4959392;28;20041;-66
2024/03/14 01:42:23;;;;;;;15.57;9.38;;;;;;;9.06;100.00;98559.00;4972654;28;20080;-65
2024/03/14 01:45:00;;;;;;;15.57;9.98;;;;;;;8.71;100.00;98519.69;4975146;28;20060;-64
2024/03/14 01:47:33;;;;;;;17.38;10.95;;;;;;;8.89;100.00;98566.50;4974418;28;20042;-65
2024/03/14 01:49:58;;;;;;;16.73;9.40;;;;;;;8.68;100.00;98560.59;4976379;28;20041;-65
2024/03/14 01:52:25;;;;;;;13.35;9.85;;;;;;;8.77;100.00;98552.03;4966173;28;20042;-64
2024/03/14 01:54:53;;;;;;;14.85;10.30;;;;;;;8.64;100.00;98513.41;4972869;28;20080;-64
2024/03/14 01:57:19;;;;;;;17.70;10.45;;;;;;;8.85;100.00;98544.38;4970287;28;20092;-65
2024/03/14 01:59:49;;;;;;;16.17;10.85;;;;;;;8.89;100.00;98552.72;4967782;28;20113;-64
2024/03/14 02:02:15;;;;;;;16.13;10.70;;;;;;;8.71;100.00;98544.78;4961200;28;20038;-64
2024/03/14 02:04:41;;;;;;;16.25;9.48;;;;;;;8.33;100.00;98499.69;4956423;28;20042;-65
2024/03/14 02:07:15;;;;;;;16.42;10.38;;;;;;;8.68;100.00;98547.66;4987456;28;21652;-64
2024/03/14 02:09:44;;;;;;;16.65;10.18;;;;;;;8.74;100.00;98539.31;4979604;28;20042;-64
2024/03/14 02:12:12;;;;;;;15.00;10.35;;;;;;;8.81;100.00;98533.47;4974647;28;20053;-65
2024/03/14 02:14:37;;;;;;;16.33;10.32;;;;;;;8.73;100.00;98504.00;4962205;28;20184;-63
2024/03/14 02:17:06;;;;;;;13.90;9.35;;;;;;;8.98;100.00;98534.59;4971888;28;20049;-65
2024/03/14 02:19:34;;;;;;;14.45;9.77;;;;;;;8.97;100.00;98547.69;4972759;28;20070;-62
2024/03/14 02:22:02;;;;;;;17.75;10.73;;;;;;;8.88;100.00;98540.72;4991788;28;20045;-65
2024/03/14 02:24:28;;;;;;;18.23;11.27;;;;;;;8.87;100.00;98534.72;4968247;28;20034;-66
2024/03/14 02:26:54;;;;;;;14.45;9.48;;;;;;;8.93;100.00;98546.31;4977042;28;20965;-65
2024/03/14 02:29:22;;;;;;;15.10;10.30;;;;;;;8.94;100.00;98538.38;4976331;28;20465;-67
2024/03/14 02:31:53;;;;;;;16.33;9.65;;;;;;;8.68;100.00;98498.41;4982032;28;20029;-65
2024/03/14 02:34:19;;;;;;;14.10;9.73;;;;;;;8.92;100.00;98534.28;4973100;28;20038;-64
2024/03/14 02:36:45;;;;;;;17.38;9.05;;;;;;;8.93;100.00;98541.13;4983202;28;20497;-64
2024/03/14 02:39:10;;;;;;;15.30;10.00;;;;;;;8.84;100.00;98538.38;4975980;28;20077;-64
2024/03/14 02:41:36;;;;;;;15.00;10.23;;;;;;;8.37;100.00;98495.88;4961080;28;20045;-64
2024/03/14 02:44:16;;;;;;;14.00;9.68;;;;;;;8.63;100.00;98532.47;4984596;28;20519;-66
2024/03/14 02:46:42;;;;;;;;;;;;;;;8.67;100.00;98539.06;4961895;28;20776;-63
2024/03/14 02:49:11;;;;;;;14.30;9.00;;;;;;;8.70;100.00;98538.78;4958736;28;19926;-65
2024/03/14 02:51:37;;;;;;;14.93;9.63;;;;;;;8.69;100.00;98528.53;4957053;28;20034;-66
2024/03/14 02:54:05;;;;;;;15.43;9.23;;;;;;;8.66;100.00;98525.25;4979792;28;20041;-65
2024/03/14 02:56:32;;;;;;;15.98;10.13;;;;;;;8.69;100.00;98534.56;4971172;28;20045;-65
2024/03/14 02:58:57;;;;;;;16.85;10.07;;;;;;;8.65;100.00;98527.97;4976279;28;20484;-65
2024/03/14 03:01:26;;;;;;;16.73;10.02;;;;;;;8.64;100.00;98526.38;4961433;28;20061;-64
2024/03/14 03:03:55;;;;;;;13.93;9.67;;;;;;;8.57;100.00;98501.94;4981085;28;20072;-65
2024/03/14 03:06:21;;;;;;;14.88;9.50;;;;;;;8.73;100.00;98517.78;4972942;28;20042;-65
2024/03/14 03:08:46;;;;;;;13.75;9.77;;;;;;;8.61;100.00;98511.88;4961507;28;20073;-63
2024/03/14 03:11:12;;;;;;;17.45;10.02;;;;;;;8.67;100.00;98518.31;4982823;28;20045;-63
2024/03/14 03:13:40;;;;;;;17.08;10.20;;;;;;;8.45;100.00;98480.47;4953598;28;20069;-63
2024/03/14 03:16:08;;;;;;;16.30;9.85;;;;;;;8.61;100.00;98511.06;4993768;28;20539;-65
2024/03/14 03:18:34;;;;;;;16.00;9.93;;;;;;;8.03;100.00;98421.91;4957394;28;20046;-65
2024/03/14 03:20:59;;;;;;;17.70;9.75;;;;;;;8.55;100.00;98511.63;4989628;28;20048;-64
2024/03/14 03:23:27;;;;;;;15.27;9.63;;;;;;;8.62;100.00;98515.31;4966022;28;20031;-65
2024/03/14 03:25:54;;;;;;;18.35;10.23;;;;;;;8.53;100.00;98501.38;4990764;28;20054;-64
2024/03/14 03:28:22;;;;;;;13.45;9.15;;;;;;;8.61;100.00;98516.25;4977167;28;20559;-64
2024/03/14 03:30:50;;;;;;;14.52;9.68;;;;;;;8.59;100.00;98511.19;4956408;28;20038;-64
2024/03/14 03:33:20;;;;;;;14.93;9.20;;;;;;;8.51;100.00;98505.88;4958426;28;20046;-65
2024/03/14 03:35:46;;;;;;;13.25;8.80;;;;;;;8.48;100.00;98489.78;4959293;28;20072;-63
2024/03/14 03:38:13;;;;;;;14.40;9.15;;;;;;;8.58;100.00;98506.16;4971369;28;20785;-65
2024/03/14 03:40:43;;;;;;;15.60;9.50;;;;;;;8.44;100.00;98503.00;4977385;28;20038;-64
2024/03/14 03:43:14;;;;;;;11.82;8.75;;;;;;;8.47;100.00;98501.94;4958976;28;20050;-63
2024/03/14 03:45:39;;;;;;;13.40;9.40;;;;;;;8.49;100.00;98512.13;4945489;28;20046;-64
2024/03/14 03:48:11;;;;;;;18.45;11.05;;;;;;;8.50;100.00;98521.56;4952023;28;20041;-64
2024/03/14 03:50:39;;;;;;;16.13;10.43;;;;;;;8.52;100.00;98520.47;4957478;28;20035;-65
2024/03/14 03:53:04;;;;;;;16.73;11.18;;;;;;;8.46;100.00;98519.22;4958937;28;20041;-65
2024/03/14 03:55:32;;;;;;;17.70;10.88;;;;;;;8.45;100.00;98519.34;4964530;28;20057;-66
2024/03/14 03:57:57;;;;;;;15.50;9.95;;;;;;;8.35;100.00;98523.69;4953412;28;20046;-64
2024/03/14 04:03:11;;;;;;;15.82;10.48;;;;;;;8.20;100.00;98521.47;4969027;28;20117;-65
2024/03/14 04:05:39;;;;;;;16.40;10.38;;;;;;;8.20;100.00;98526.63;4946391;28;20034;-65
2024/03/14 04:08:05;;;;;;;16.92;10.32;;;;;;;8.11;100.00;98524.84;4958840;28;20048;-65
2024/03/14 04:10:35;;;;;;;17.45;10.57;;;;;;;8.11;100.00;98524.84;4939463;28;20102;-65
2024/03/14 04:13:00;;;;;;;17.15;10.25;;;;;;;7.81;100.00;98479.06;4963201;28;20481;-64
2024/03/14 04:15:28;;;;;;;14.32;10.20;;;;;;;8.13;100.00;98528.09;4936996;28;20038;-66
2024/03/14 04:18:00;;;;;;;16.55;10.15;;;;;;;8.14;100.00;98518.56;4937120;28;20812;-65
2024/03/14 04:20:29;;;;;;;16.00;9.80;;;;;;;8.20;100.00;98526.63;4956431;28;20035;-64
2024/03/14 04:22:56;;;;;;;16.10;10.73;;;;;;;8.17;100.00;98513.13;4970022;28;20077;-66
2024/03/14 04:25:24;;;;;;;15.27;9.90;;;;;;;8.18;100.00;98510.41;4953495;28;20097;-65
2024/03/14 04:27:53;;;;;;;17.05;10.68;;;;;;;8.22;100.00;98518.75;4937585;28;20046;-66
2024/03/14 04:30:23;;;;;;;17.20;9.88;;;;;;;8.17;100.00;98513.13;4960906;28;20031;-65
2024/03/14 04:32:54;;;;;;;18.67;11.40;;;;;;;8.12;100.00;98510.91;4954436;28;20050;-65
2024/03/14 04:35:25;;;;;;;14.15;9.98;;;;;;;7.98;100.00;98488.00;4953991;28;20034;-65
2024/03/14 04:37:53;;;;;;;15.68;10.13;;;;;;;8.08;100.00;98514.72;4960145;28;20034;-65
2024/03/14 04:40:24;;;;;;;17.40;9.82;;;;;;;8.02;100.00;98510.09;4956038;28;20044;-64
2024/03/14 04:42:53;;;;;;;17.50;9.90;;;;;;;7.77;100.00;98475.91;4966110;28;20042;-64
2024/03/14 04:45:21;;;;;;;15.73;10.30;;;;;;;7.97;100.00;98514.84;4983195;28;20031;-66
2024/03/14 04:47:47;;;;;;;16.33;10.15;;;;;;;8.03;100.00;98524.66;4989636;28;20041;-64
2024/03/14 04:50:18;;;;;;;15.50;9.52;;;;;;;8.07;100.00;98520.88;4971575;28;20050;-66
2024/03/14 04:52:44;;;;;;;15.18;10.05;;;;;;;8.08;100.00;98520.72;4966617;28;20042;-64
2024/03/14 04:55:12;;;;;;;17.80;10.48;;;;;;;8.14;100.00;98527.16;4961545;28;20040;-65
2024/03/14 04:57:43;;;;;;;15.18;9.70;;;;;;;7.95;100.00;98488.25;4961610;28;20647;-66
2024/03/14 05:00:20;;;;;;;15.80;10.55;;;;;;;7.89;100.00;98485.22;4961703;28;20104;-65
2024/03/14 05:02:50;;;;;;;16.05;9.95;;;;;;;8.03;100.00;98516.88;4958292;28;20152;-64
2024/03/14 05:05:18;;;;;;;16.95;10.25;;;;;;;8.08;100.00;98527.69;4975429;28;20054;-64
2024/03/14 05:07:44;;;;;;;15.95;10.00;;;;;;;8.07;100.00;98526.06;4988118;28;20042;-64
2024/03/14 05:10:09;;;;;;;15.95;9.75;;;;;;;8.08;100.00;98523.31;4960810;28;20574;-65
2024/03/14 05:12:35;;;;;;;14.57;9.43;;;;;;;8.07;100.00;98515.69;4975832;28;20046;-65
2024/03/14 05:15:04;;;;;;;14.60;9.18;;;;;;;8.12;100.00;98525.66;4957960;28;20574;-68
2024/03/14 05:17:33;;;;;;;14.52;10.10;;;;;;;7.78;100.00;98484.50;4963180;28;20041;-64
2024/03/14 05:20:01;;;;;;;13.82;9.70;;;;;;;7.81;100.00;98487.66;4972507;28;20038;-64
2024/03/14 05:22:31;;;;;;;15.35;9.80;;;;;;;8.15;100.00;98527.97;4972564;28;20062;-65
2024/03/14 05:24:58;;;;;;;15.40;10.57;;;;;;;7.91;100.00;98489.47;4954615;28;20041;-65
2024/03/14 05:27:27;;;;;;;14.73;9.60;;;;;;;8.02;100.00;98491.97;4966284;28;20492;-64
2024/03/14 05:29:55;;;;;;;14.52;9.15;;;;;;;8.28;100.00;98519.00;4978293;28;20774;-64
2024/03/14 05:32:22;;;;;;;16.25;9.70;;;;;;;8.30;100.00;98521.47;4984321;28;20669;-64
2024/03/14 05:34:50;;;;;;;13.82;9.75;;;;;;;8.34;100.00;98516.84;4981571;28;20092;-64
2024/03/14 05:37:18;;;;;;;16.33;9.93;;;;;;;8.18;100.00;98520.78;4956615;28;20049;-67
2024/03/14 05:39:44;;;;;;;15.50;9.50;;;;;;;8.14;100.00;98526.34;4995061;28;20129;-65
2024/03/14 05:42:12;;;;;;;14.85;10.32;;;;;;;8.17;100.00;98521.72;4969788;28;20144;-63
2024/03/14 05:44:43;;;;;;;16.95;9.73;;;;;;;8.08;100.00;98520.72;4994226;28;20044;-63
2024/03/14 05:47:11;;;;;;;15.52;9.73;;;;;;;8.24;100.00;98533.19;4970219;28;20053;-65
2024/03/14 05:49:38;;;;;;;18.73;10.68;;;;;;;8.09;100.00;98521.56;4966689;28;21207;-64
2024/03/14 05:52:03;;;;;;;16.42;11.75;;;;;;;7.92;100.00;98520.38;4976314;28;20038;-65
2024/03/14 05:54:29;;;;;;;17.63;11.77;;;;;;;8.08;100.00;98530.28;4961657;28;20027;-66
2024/03/14 05:56:55;;;;;;;15.15;11.30;;;;;;;8.22;100.00;98542.06;4960804;28;20042;-65
2024/03/14 05:59:20;;;;;;;16.55;10.07;;;;;;;8.30;100.00;98536.22;4984999;28;20080;-65
2024/03/14 06:01:47;;;;;;;13.27;9.45;;;;;;;8.24;100.00;98538.38;4961488;28;20042;-66
2024/03/14 06:04:13;;;;;;;14.35;9.32;;;;;;;8.25;100.00;98534.84;4973659;28;20096;-62
2024/03/14 06:06:41;;;;;;;14.40;9.38;;;;;;;8.35;100.00;98550.41;4977504;28;20046;-64
2024/03/14 06:09:12;;;;;;;14.40;10.02;;;;;;;8.35;100.00;98550.41;4976081;28;20056;-64
2024/03/14 06:11:40;;;;;;;15.73;9.75;;;;;;;8.35;100.00;98553.00;4960675;28;20037;-65
2024/03/14 06:14:05;;;;;;;16.50;9.57;;;;;;;8.08;100.00;98506.97;4988539;28;20442;-65
2024/03/14 06:16:33;;;;;;;15.07;10.15;;;;;;;8.32;100.00;98547.25;4963167;28;20041;-64
2024/03/14 06:18:59;;;;;;;16.67;11.15;;;;;;;8.38;100.00;98555.31;4975874;28;20576;-63
2024/03/14 06:21:24;;;;;;;21.92;11.73;;;;;;;8.21;100.00;98550.75;4963505;28;20121;-67
2024/03/14 06:23:55;;;;;;;19.83;10.63;;;;;;;8.07;100.00;98518.28;4970085;28;20401;-63
2024/03/14 06:26:20;;;;;;;16.63;10.70;;;;;;;8.05;100.00;98515.00;4990974;28;20103;-63
2024/03/14 06:28:46;;;;;;;16.40;9.95;;;;;;;8.36;100.00;98557.22;4968602;28;20072;-64
2024/03/14 06:31:15;;;;;;;15.88;10.80;;;;;;;8.11;100.00;98518.84;4967614;28;20063;-65
2024/03/14 06:33:41;;;;;;;16.25;9.98;;;;;;;8.33;100.00;98556.69;4978049;28;20038;-63
2024/03/14 06:36:08;;;;;;;13.85;9.27;;;;;;;8.34;100.00;98550.53;4980859;28;20120;-65
2024/03/14 06:38:34;;;;;;;15.77;9.57;;;;;;;8.48;100.00;98557.97;4973951;28;20042;-65
2024/03/14 06:40:59;;;;;;;13.85;8.93;;;;;;;8.52;100.00;98541.19;4993743;28;20119;-64
2024/03/14 06:43:27;;;;;;;14.18;9.18;;;;;;;8.32;100.00;98555.03;4972660;28;20532;-63
2024/03/14 06:45:56;;;;;;;11.32;8.90;;;;;;;8.33;100.00;98560.06;4979744;28;20127;-65
2024/03/14 06:48:21;;;;;;;15.80;8.80;;;;;;;8.33;100.00;98559.25;4979273;28;20026;-65
2024/03/14 06:50:49;;;;;;;16.10;9.82;;;;;;;8.38;100.00;98565.69;4981436;28;20552;-64
2024/03/14 06:53:16;;;;;;;13.50;8.80;;;;;;;8.42;100.00;98566.28;4969313;28;20038;-64
2024/03/14 06:55:42;;;;;;;13.55;9.07;;;;;;;8.10;100.00;98533.53;4983264;28;20095;-64
2024/03/14 06:58:08;;;;;;;15.15;8.90;;;;;;;8.18;100.00;98548.44;4971908;28;20567;-63
2024/03/14 07:00:33;;;;;;;13.02;8.90;;;;;;;7.80;100.00;98522.25;4981778;28;20045;-65
2024/03/14 07:03:02;;;;;;;15.15;9.75;;;;;;;8.15;100.00;98566.84;4975924;28;20050;-64
2024/03/14 07:05:28;;;;;;;13.50;8.80;;;;;;;8.12;100.00;98567.91;4983733;28;20037;-65
2024/03/14 07:07:56;;;;;;;15.13;9.35;;;;;;;7.95;100.00;98521.91;4961867;28;20037;-64
2024/03/14 07:10:21;;;;;;;14.80;8.75;;;;;;;8.34;100.00;98577.28;4980313;28;20053;-65
2024/03/14 07:12:47;;;;;;;14.00;9.38;;;;;;;8.25;100.00;98578.88;4959000;28;20682;-65
2024/03/14 07:15:13;;;;;;;15.07;8.90;;;;;;;8.32;100.00;98573.97;4993905;28;20065;-63
2024/03/14 07:17:41;;;;;;;13.20;8.55;;;;;;;8.41;100.00;98583.53;4976201;28;21050;-64
2024/03/14 07:20:16;;;;;;;14.43;9.00;;;;;;;8.43;100.00;98578.28;4986799;28;20607;-62
2024/03/14 07:22:51;;;;;;;15.48;8.90;;;;;;;8.11;100.00;98550.72;4979294;28;20524;-64
2024/03/14 07:25:17;;;;;;;14.20;9.10;;;;;;;8.06;100.00;98547.72;4951828;28;20041;-64
2024/03/14 07:27:45;;;;;;;13.50;9.55;;;;;;;8.30;100.00;98577.66;4958692;28;20037;-64
2024/03/14 07:30:14;;;;;;;13.45;8.98;;;;;;;8.23;100.00;98554.88;4975428;28;20038;-64
2024/03/14 07:32:45;;;;;;;14.40;9.55;;;;;;;8.42;100.00;98585.22;4996131;28;20056;-63
2024/03/14 07:35:13;;;;;;;14.85;9.93;;;;;;;8.46;100.00;98588.38;4959311;28;21113;-65
2024/03/14 07:37:42;;;;;;;14.73;9.77;;;;;;;8.55;100.00;98584.19;4971179;28;20034;-64
2024/03/14 07:40:11;;;;;;;15.10;9.18;;;;;;;8.64;100.00;98586.78;4975905;28;20042;-64
2024/03/14 07:42:43;;;;;;;13.77;9.52;;;;;;;8.63;100.00;98595.53;4963821;28;20088;-63
2024/03/14 07:45:13;;;;;;;15.57;9.93;;;;;;;8.43;100.00;98566.16;4976982;28;20041;-66
2024/03/14 07:47:39;;;;;;;16.45;10.25;;;;;;;8.39;100.00;98584.63;4967749;28;20142;-63
2024/03/14 07:50:07;;;;;;;14.90;9.57;;;;;;;8.41;100.00;98580.94;4963230;28;20045;-64
2024/03/14 07:52:32;;;;;;;15.25;9.73;;;;;;;8.38;100.00;98594.19;4974640;28;20045;-65
2024/03/14 07:54:58;;;;;;;15.77;9.60;;;;;;;8.37;100.00;98592.53;4970541;28;20478;-63
2024/03/14 07:57:26;;;;;;;17.10;10.77;;;;;;;8.49;100.00;98598.50;4986190;28;20042;-63
2024/03/14 07:59:51;;;;;;;14.48;9.35;;;;;;;8.46;100.00;98591.78;4965505;28;20072;-64
2024/03/14 08:02:17;;;;;;;13.45;9.27;;;;;;;8.49;100.00;98590.72;4963284;28;20124;-64
2024/03/14 08:04:44;;;;;;;13.88;8.60;;;;;;;8.68;100.00;98604.69;4959225;28;20831;-64
2024/03/14 08:07:22;;;;;;;13.80;9.55;;;;;;;8.75;100.00;98592.81;4994589;28;20038;-62
2024/03/14 08:09:50;;;;;;;14.15;9.00;;;;;;;8.84;100.00;98602.41;4970189;28;20341;-62
2024/03/14 08:12:17;;;;;;;13.50;8.75;;;;;;;8.87;100.00;98603.88;4978526;28;20038;-65
2024/03/14 08:14:44;;;;;;;13.80;8.85;;;;;;;8.76;100.00;98607.41;4957446;28;20073;-63
2024/03/14 08:17:15;;;;;;;14.05;9.07;;;;;;;8.61;100.00;98600.00;4971013;28;20037;-65
2024/03/14 08:19:41;;;;;;;14.48;9.10;;;;;;;8.67;100.00;98609.06;4980355;28;20041;-63
2024/03/14 08:22:06;;;;;;;13.05;9.07;;;;;;;8.62;100.00;98606.84;4977395;28;20041;-63
2024/03/14 08:24:46;;;;;;;12.40;8.40;;;;;;;8.75;100.00;98611.78;4975817;28;20044;-63
2024/03/14 08:27:12;;;;;;;12.98;9.18;;;;;;;8.80;100.00;98608.81;4971641;28;20034;-63
2024/03/14 08:29:41;;;;;;;15.45;9.88;;;;;;;8.91;100.00;98605.25;4955036;28;20214;-64
2024/03/14 08:32:09;;;;;;;12.73;9.10;;;;;;;8.89;100.00;98605.41;4959168;28;20045;-63
2024/03/14 08:34:34;;;;;;;14.10;9.23;;;;;;;8.91;100.00;98587.09;4973400;28;20069;-63
2024/03/14 08:37:06;;;;;;;15.60;9.45;;;;;;;9.09;100.00;98606.25;4980683;28;20398;-64
2024/03/14 08:39:31;;;;;;;12.00;8.57;;;;;;;9.18;100.00;98607.19;4980065;28;20041;-64
2024/03/14 08:41:59;;;;;;;14.10;9.15;;;;;;;9.32;100.00;98611.97;4965240;28;20046;-64
2024/03/14 08:44:27;;;;;;;13.73;8.95;;;;;;;9.30;100.00;98608.72;4974364;28;20121;-63
2024/03/14 08:46:53;;;;;;;13.48;9.27;;;;;;;9.11;100.00;98578.41;4984224;28;20046;-62
2024/03/14 08:49:18;;;;;;;13.18;8.63;;;;;;;9.28;100.00;98608.03;4977236;28;20041;-63
2024/03/14 08:51:45;;;;;;;16.70;9.43;;;;;;;9.23;100.00;98607.59;4988627;28;20508;-64
2024/03/14 08:56:49;;;;;;;12.15;8.38;;;;;;;9.42;100.00;98615.41;4972396;28;20706;-64
2024/03/14 08:59:20;;;;;;;15.20;9.23;;;;;;;9.58;100.00;98614.00;4952608;28;20137;-65
2024/03/14 09:01:45;;;;;;;13.73;8.68;;;;;;;9.67;100.00;98608.00;4975842;28;20030;-63
2024/03/14 09:04:14;;;;;;;14.45;8.98;;;;;;;9.77;100.00;98605.41;4980193;28;20041;-64
2024/03/14 09:06:42;;;;;;;14.38;9.23;;;;;;;9.82;100.00;98608.41;4982455;28;20033;-63
2024/03/14 09:09:08;;;;;;;14.70;9.77;;;;;;;9.96;100.00;98614.91;4972965;28;20041;-63
2024/03/14 09:11:48;;;;;;;16.05;9.02;;;;;;;10.05;100.00;98611.47;4983237;28;20080;-63
2024/03/14 09:14:14;;;;;;;13.35;9.40;;;;;;;10.08;100.00;98602.59;4954479;28;20124;-62
2024/03/14 09:16:40;;;;;;;15.48;9.43;;;;;;;10.15;100.00;98612.28;4995244;28;20125;-63
2024/03/14 09:19:06;;;;;;;14.75;9.60;;;;;;;10.19;100.00;98611.00;4977051;28;20039;-63
2024/03/14 09:21:31;;;;;;;14.48;9.25;;;;;;;9.74;99.34;98548.53;4969051;28;20112;-64
2024/03/14 09:23:59;;;;;;;14.88;9.93;;;;;;;10.05;100.00;98610.66;4961195;28;20074;-63
2024/03/14 09:26:25;;;;;;;15.77;9.55;;;;;;;9.84;97.36;98605.63;4992550;28;20068;-63
2024/03/14 09:28:51;;;;;;;13.15;8.77;;;;;;;9.93;95.22;98616.03;4963069;28;20037;-64
2024/03/14 09:31:19;;;;;;;15.60;10.30;;;;;;;9.89;94.93;98611.25;4964879;28;20698;-64
2024/03/14 09:33:44;;;;;;;12.80;9.18;;;;;;;9.53;95.36;98577.28;4979282;28;20038;-65
2024/03/14 09:36:13;;;;;;;13.50;9.77;;;;;;;9.72;95.00;98610.19;4975874;28;20034;-63
2024/03/14 09:38:41;;;;;;;14.25;9.02;;;;;;;9.91;95.12;98617.09;4981567;28;20064;-63
2024/03/14 09:41:15;;;;;;;18.58;10.55;;;;;;;9.92;96.65;98608.38;4978527;28;20405;-63
2024/03/14 09:43:44;;;;;;;15.35;10.18;;;;;;;9.90;96.49;98579.94;4975475;28;20056;-64
2024/03/14 09:46:13;;;;;;;14.38;9.40;;;;;;;10.02;94.35;98570.22;4973245;28;20046;-64
2024/03/14 09:48:38;;;;;;;14.38;9.13;;;;;;;10.34;93.63;98595.00;4975087;28;20043;-65
2024/03/14 09:51:08;;;;;;;13.93;8.77;;;;;;;10.50;90.49;98604.78;4981200;28;20104;-63
2024/03/14 09:53:35;;;;;;;14.23;8.63;;;;;;;10.68;90.13;98594.44;4972373;28;20042;-63
2024/03/14 09:56:06;;;;;;;16.15;9.75;;;;;;;10.82;89.88;98587.91;4963635;28;20456;-63
2024/03/14 09:58:31;;;;;;;16.85;10.35;;;;;;;10.98;90.64;98587.25;4973926;28;20041;-64
2024/03/14 10:00:57;;;;;;;20.48;11.18;;;;;;;11.13;89.79;98591.81;4988250;28;20046;-63
2024/03/14 10:03:22;;;;;;;14.80;10.55;;;;;;;11.06;89.36;98576.91;4975794;28;20046;-62
2024/03/14 10:05:52;;;;;;;17.33;9.55;;;;;;;11.17;89.93;98587.13;4980967;28;20061;-62
2024/03/14 10:08:22;;;;;;;14.15;9.82;;;;;;;11.32;90.21;98577.81;4973367;28;20069;-63
2024/03/14 10:10:54;;;;;;;17.05;10.70;;;;;;;11.35;88.71;98577.50;4962827;28;20148;-64
2024/03/14 10:13:25;;;;;;;19.65;10.98;;;;;;;11.16;90.85;98575.06;4976101;28;20108;-63
2024/03/14 10:15:54;;;;;;;16.08;9.63;;;;;;;11.16;91.86;98580.25;4978374;28;20137;-62
2024/03/14 10:18:19;;;;;;;14.57;9.32;;;;;;;11.28;90.95;98570.44;4969931;28;20202;-63
2024/03/14 10:20:45;;;;;;;15.20;9.77;;;;;;;11.29;88.62;98562.47;4977945;28;20509;-64
2024/03/14 10:23:17;;;;;;;17.80;9.90;;;;;;;11.26;87.46;98554.16;4979631;28;20177;-63
2024/03/14 10:25:50;;;;;;;17.73;10.05;;;;;;;11.66;83.78;98563.22;4993996;28;20042;-64
2024/03/14 10:28:18;;;;;;;12.82;8.15;;;;;;;11.67;79.69;98560.47;4977040;28;20030;-64
2024/03/14 10:30:57;;;;;;;13.27;8.18;;;;;;;11.91;80.51;98569.44;4976283;28;20124;-64
2024/03/14 10:33:26;;;;;;;;;;;;;;;12.00;80.40;98568.53;4961177;28;20038;-64
2024/03/14 10:36:00;;;;;;;17.20;10.30;;;;;;;12.17;82.69;98560.78;4980992;28;20004;-64
2024/03/14 10:38:27;;;;;;;20.65;14.20;;;;;;;12.34;84.38;98553.84;4962704;28;20076;-65
2024/03/14 10:40:58;;;;;;;25.30;15.15;;;;;;;12.66;81.08;98548.72;4990575;28;20789;-64
2024/03/14 10:43:32;;;;;;;20.70;14.70;;;;;;;12.88;79.42;98554.31;4964778;28;20050;-65
2024/03/14 10:45:57;;;;;;;23.85;14.52;;;;;;;13.00;79.72;98558.25;4936413;28;20039;-64
2024/03/14 10:48:23;;;;;;;23.05;14.73;;;;;;;13.14;77.83;98548.16;4960518;28;20026;-64
2024/03/14 10:50:51;;;;;;;21.73;14.18;;;;;;;13.24;77.02;98547.00;4961666;28;20591;-64
2024/03/14 10:53:19;;;;;;;22.35;14.02;;;;;;;13.36;76.98;98549.31;4960148;28;20160;-64
2024/03/14 10:55:48;;;;;;;19.33;13.13;;;;;;;13.44;76.01;98554.56;4973810;28;20038;-64
2024/03/14 10:58:17;;;;;;;22.40;13.68;;;;;;;13.49;73.13;98544.44;4963073;28;20030;-64
2024/03/14 11:00:44;;;;;;;19.50;13.65;;;;;;;13.44;74.37;98505.72;4953840;28;20489;-65
2024/03/14 11:03:17;;;;;;;19.77;13.00;;;;;;;13.67;74.36;98538.19;4960678;28;20037;-64
2024/03/14 11:05:44;;;;;;;20.20;14.20;;;;;;;13.66;75.08;98534.75;4942028;28;20089;-64
2024/03/14 11:08:14;;;;;;;21.77;14.27;;;;;;;13.75;74.08;98532.97;4965621;28;20080;-63
2024/03/14 11:10:41;;;;;;;21.33;13.30;;;;;;;13.85;73.67;98536.19;4953491;28;20058;-64
2024/03/14 11:13:21;;;;;;;20.98;13.63;;;;;;;13.71;73.27;98505.50;4970678;28;20043;-64
2024/03/14 11:15:47;;;;;;;26.00;13.85;;;;;;;13.97;72.90;98524.41;4967784;28;20038;-64
2024/03/14 11:18:16;;;;;;;21.77;14.88;;;;;;;14.03;72.44;98531.56;4977520;28;20034;-64
2024/03/14 11:20:44;;;;;;;23.92;14.25;;;;;;;14.11;72.17;98524.66;4942419;28;20039;-64
2024/03/14 11:23:13;;;;;;;21.83;13.90;;;;;;;13.90;72.37;98479.00;4973337;28;20049;-63
2024/03/14 11:25:43;;;;;;;22.70;15.70;;;;;;;14.15;71.78;98518.13;4957805;28;20768;-65
2024/03/14 11:28:08;;;;;;;;;;;;;;;14.29;71.24;98520.03;4954972;28;20042;-65
2024/03/14 11:30:36;;;;;;;20.37;14.33;;;;;;;14.20;70.99;98503.56;4960959;28;20339;-64